Time;durP1;ratioP1;P1;durP2;ratioP2;P2;SDS_P1;SDS_P2;PMS_P1;PMS_P2;Temp;Humidity;BMP_temperature;BMP_pressure;BME280_temperature;BME280_humidity;BME280_pressure;Samples;Min_cycle;Max_cycle;Signal;HPM_P1;HPM_P2
2022/05/09 07:33:44;;;;;;;4.65;4.20;;;;;;;;;;5737703;23;20052;-94
2022/05/09 07:36:10;;;;;;;4.97;4.47;;;;;;;;;;4920590;29;20043;-93
2022/05/09 07:38:35;;;;;;;5.13;4.50;;;;;;;;;;4920336;29;20028;-94
2022/05/09 07:41:01;;;;;;;5.93;4.70;;;;;;;;;;4920968;29;20374;-95
2022/05/09 08:12:10;;;;;;;5.50;4.85;;;;;;;;;;4936012;29;20390;-89
2022/05/09 08:14:36;;;;;;;6.80;4.70;;;;;;;;;;4956145;29;20043;-91
2022/05/09 08:17:02;;;;;;;4.95;4.30;;;;;;;;;;4956028;29;20470;-94
2022/05/09 08:19:29;;;;;;;6.20;4.70;;;;;;;;;;4954916;28;20030;-94
2022/05/09 08:21:55;;;;;;;5.75;4.82;;;;;;;;;;4954872;28;20414;-93
2022/05/09 08:24:22;;;;;;;4.90;4.45;;;;;;;;;;4955268;28;20039;-93
2022/05/09 08:26:48;;;;;;;6.97;4.55;;;;;;;;;;4957035;28;20031;-93
2022/05/09 08:29:13;;;;;;;8.55;5.03;;;;;;;;;;4955386;29;20122;-87
2022/05/09 08:31:39;;;;;;;13.20;4.78;;;;;;;;;;4957125;28;20405;-88
2022/05/09 08:34:04;;;;;;;6.20;4.30;;;;;;;;;;4957679;28;20082;-85
2022/05/09 08:39:15;;;;;;;6.72;3.83;;;;;;;;;;4960895;28;20497;-90
2022/05/09 08:42:00;;;;;;;29.10;6.75;;;;;;;;;;4957542;28;20540;-87
2022/05/09 08:44:56;;;;;;;50.67;7.95;;;;;;;;;;4974366;28;20023;-78
2022/05/09 08:47:24;;;;;;;4.70;4.18;;;;;;;;;;4974402;28;20030;-78
2022/05/09 08:50:13;;;;;;;5.35;3.97;;;;;;;;;;4974314;28;20097;-79
2022/05/09 08:52:45;;;;;;;5.28;4.10;;;;;;;;;;4974087;28;20090;-81
2022/05/09 08:55:12;;;;;;;4.55;3.90;;;;;;;;;;4974457;28;20058;-81
2022/05/09 08:57:43;;;;;;;9.90;4.45;;;;;;;;;;4975309;28;20031;-80
2022/05/09 09:00:15;;;;;;;5.05;4.55;;;;;;;;;;4978010;28;20524;-78
2022/05/09 09:02:44;;;;;;;4.40;4.00;;;;;;;;;;4978045;28;20085;-78
2022/05/09 09:05:12;;;;;;;4.32;3.92;;;;;;;;;;4977790;28;20051;-78
2022/05/09 09:08:14;;;;;;;5.00;4.40;;;;;;;;;;4977595;28;20118;-78
2022/05/09 09:11:03;;;;;;;5.70;3.85;;;;;;;;;;4977761;28;20029;-79
2022/05/09 09:14:06;;;;;;;5.27;4.67;;;;;;;;;;4960172;28;20050;-77
2022/05/09 09:16:37;;;;;;;5.18;4.68;;;;;;;;;;4977713;28;20732;-78
2022/05/09 09:19:39;;;;;;;5.30;4.80;;;;;;;;;;4977501;28;20106;-77
2022/05/09 09:22:30;;;;;;;4.32;3.92;;;;;;;;;;4977576;28;20566;-80
2022/05/09 09:24:58;;;;;;;6.35;3.95;;;;;;;;;;4959956;28;20038;-77
2022/05/09 09:27:41;;;;;;;4.47;4.05;;;;;;;;;;4977327;28;20038;-78
2022/05/09 09:30:13;;;;;;;5.07;4.20;;;;;;;;;;4977169;28;20023;-78
2022/05/09 09:32:40;;;;;;;4.70;3.92;;;;;;;;;;4976926;28;20066;-77
2022/05/09 09:35:55;;;;;;;4.57;3.88;;;;;;;;;;4977344;28;20465;-77
2022/05/09 09:38:55;;;;;;;5.05;4.57;;;;;;;;;;4935477;28;20078;-77
2022/05/09 09:41:40;;;;;;;4.63;4.15;;;;;;;;;;4977093;28;20031;-77
2022/05/09 09:44:12;;;;;;;5.38;4.70;;;;;;;;;;4976367;28;20038;-78
2022/05/09 09:47:00;;;;;;;4.65;4.25;;;;;;;;;;4977081;28;20105;-84
2022/05/09 09:49:25;;;;;;;5.07;4.47;;;;;;;;;;4976778;28;20035;-78
2022/05/09 09:51:51;;;;;;;4.88;4.47;;;;;;;;;;4976976;28;20027;-82
2022/05/09 09:54:22;;;;;;;5.95;4.65;;;;;;;;;;4976791;28;20066;-80
2022/05/09 09:56:48;;;;;;;6.68;4.55;;;;;;;;;;4976882;28;20047;-79
2022/05/09 09:59:13;;;;;;;6.80;4.88;;;;;;;;;;4976660;28;20489;-78
2022/05/09 10:01:40;;;;;;;7.07;4.80;;;;;;;;;;4976833;28;20019;-80
2022/05/09 10:04:11;;;;;;;5.45;4.55;;;;;;;;;;4976906;28;20049;-78
2022/05/09 10:06:59;;;;;;;5.63;5.13;;;;;;;;;;4976726;28;20030;-81
2022/05/09 10:09:26;;;;;;;6.03;4.72;;;;;;;;;;4975225;28;20027;-83
2022/05/09 10:11:51;;;;;;;6.22;5.53;;;;;;;;;;4976496;28;20042;-84
2022/05/09 10:14:35;;;;;;;5.15;4.63;;;;;;;;;;4976312;28;20549;-84
2022/05/09 10:17:32;;;;;;;5.15;4.65;;;;;;;;;;4976369;28;20033;-79
2022/05/09 10:20:00;;;;;;;5.47;4.40;;;;;;;;;;4976483;28;20107;-77
2022/05/09 10:25:28;;;;;;;5.43;4.93;;;;;;;;;;4970671;28;20046;-81
2022/05/09 10:28:07;;;;;;;5.53;5.03;;;;;;;;;;4976202;28;20030;-79
2022/05/09 10:30:56;;;;;;;6.18;5.57;;;;;;;;;;4976092;28;20023;-84
2022/05/09 10:33:38;;;;;;;6.15;5.22;;;;;;;;;;4975982;28;20458;-81
2022/05/09 10:36:30;;;;;;;5.88;4.68;;;;;;;;;;4966532;28;20035;-77
2022/05/09 10:39:13;;;;;;;4.88;4.35;;;;;;;;;;4972224;28;20039;-78
2022/05/09 10:41:43;;;;;;;6.43;4.75;;;;;;;;;;4970527;28;20067;-78
2022/05/09 10:44:34;;;;;;;7.97;5.50;;;;;;;;;;4975947;28;20022;-86
2022/05/09 10:47:08;;;;;;;5.55;5.05;;;;;;;;;;4971786;28;20454;-77
2022/05/09 10:49:46;;;;;;;6.00;5.40;;;;;;;;;;4967222;28;20027;-76
2022/05/09 10:52:44;;;;;;;5.45;4.90;;;;;;;;;;4975701;28;20031;-79
2022/05/09 10:55:13;;;;;;;7.85;5.55;;;;;;;;;;4975497;28;20035;-80
2022/05/09 10:58:04;;;;;;;6.05;5.45;;;;;;;;;;4975662;28;20023;-78
2022/05/09 11:00:33;;;;;;;5.47;4.80;;;;;;;;;;4964257;28;20508;-80
2022/05/09 11:03:22;;;;;;;5.50;4.97;;;;;;;;;;4975381;28;20034;-80
2022/05/09 11:05:48;;;;;;;;;;;;;;;;;;4976087;28;20067;-79
2022/05/09 11:08:28;;;;;;;5.43;4.40;;;;;;;;;;4975377;28;19957;-85
2022/05/09 11:11:26;;;;;;;8.32;5.55;;;;;;;;;;4975756;28;20409;-78
2022/05/09 11:13:57;;;;;;;9.55;7.30;;;;;;;;;;4891592;28;20054;-78
2022/05/09 11:16:40;;;;;;;7.68;6.53;;;;;;;;;;4975307;28;20026;-80
2022/05/09 11:19:20;;;;;;;8.55;6.68;;;;;;;;;;4975333;28;20050;-79
2022/05/09 11:22:18;;;;;;;8.65;6.80;;;;;;;;;;4974942;28;20026;-85
2022/05/09 11:24:59;;;;;;;9.68;5.78;;;;;;;;;;4975903;28;20042;-81
2022/05/09 11:27:34;;;;;;;6.57;5.97;;;;;;;;;;4975266;28;20022;-79
2022/05/09 11:30:14;;;;;;;10.05;6.78;;;;;;;;;;4974936;28;20027;-86
2022/05/09 11:32:46;;;;;;;8.68;7.00;;;;;;;;;;4975122;28;20077;-78
2022/05/09 11:35:34;;;;;;;8.60;7.72;;;;;;;;;;4975248;28;20077;-78
2022/05/09 11:38:10;;;;;;;7.97;6.90;;;;;;;;;;4974935;28;20026;-84
2022/05/09 11:40:58;;;;;;;8.85;7.68;;;;;;;;;;4974898;28;20058;-79
2022/05/09 11:43:51;;;;;;;8.65;7.43;;;;;;;;;;4974858;28;20442;-77
2022/05/09 17:05:49;;;;;;;6.88;5.07;;;;;;;;;;5368670;23;20536;-77
2022/05/09 17:08:14;;;;;;;9.83;5.40;;;;;;;;;;4938692;29;20058;-77
2022/05/09 17:10:40;;;;;;;9.05;5.32;;;;;;;;;;4939344;29;20044;-77
2022/05/09 17:13:06;;;;;;;6.25;5.65;;;;;;;;;;4939088;29;20028;-80
2022/05/09 17:15:36;;;;;;;8.25;5.50;;;;;;;;;;4938908;29;20482;-77
2022/05/09 17:18:04;;;;;;;9.13;5.70;;;;;;;;;;4938688;29;20525;-77
2022/05/09 17:20:32;;;;;;;6.88;5.55;;;;;;;;;;4938919;29;20106;-78
2022/05/09 17:22:57;;;;;;;8.35;5.53;;;;;;;;;;4938905;29;20028;-80
2022/05/09 17:25:30;;;;;;;6.05;5.18;;;;;;;;;;4938913;29;20377;-78
2022/05/09 17:27:56;;;;;;;9.07;4.93;;;;;;;;;;4939134;29;20035;-77
2022/05/09 17:30:27;;;;;;;7.47;5.32;;;;;;;;;;4938869;29;20124;-77
2022/05/09 17:32:54;;;;;;;10.52;4.95;;;;;;;;;;4938410;29;20075;-80
2022/05/09 17:38:04;;;;;;;7.03;5.05;;;;;;;;;;4938666;29;20039;-77
2022/05/09 17:40:37;;;;;;;9.80;5.30;;;;;;;;;;4938714;29;20024;-78
2022/05/09 17:43:03;;;;;;;8.20;5.43;;;;;;;;;;4921349;29;20027;-79
2022/05/09 17:45:30;;;;;;;8.27;4.93;;;;;;;;;;4938468;29;20078;-80
2022/05/09 17:47:55;;;;;;;7.60;5.32;;;;;;;;;;4938513;29;20055;-76
2022/05/09 17:50:21;;;;;;;6.25;4.95;;;;;;;;;;4938698;29;20368;-82
2022/05/09 17:52:48;;;;;;;7.07;5.55;;;;;;;;;;4938370;29;20079;-83
2022/05/09 17:55:14;;;;;;;10.48;5.43;;;;;;;;;;4921375;29;20040;-86
2022/05/09 17:57:41;;;;;;;10.05;5.00;;;;;;;;;;4938300;29;20067;-81
2022/05/09 18:00:07;;;;;;;6.72;4.90;;;;;;;;;;4938077;29;20032;-77
2022/05/09 18:02:33;;;;;;;7.80;5.85;;;;;;;;;;4938533;29;20138;-77
2022/05/09 18:04:58;;;;;;;6.68;5.55;;;;;;;;;;4938359;29;20480;-78
2022/05/09 18:07:24;;;;;;;7.43;4.97;;;;;;;;;;4938052;29;20047;-77
2022/05/09 18:09:49;;;;;;;8.00;5.32;;;;;;;;;;4937908;29;20043;-77
2022/05/09 18:12:21;;;;;;;5.82;5.25;;;;;;;;;;4937605;29;20034;-78
2022/05/09 18:15:04;;;;;;;9.95;5.85;;;;;;;;;;4918235;29;20087;-80
2022/05/09 18:17:33;;;;;;;5.75;5.25;;;;;;;;;;4938432;29;20032;-76
2022/05/09 18:20:09;;;;;;;8.85;5.93;;;;;;;;;;4937877;29;20506;-81
2022/05/09 18:22:36;;;;;;;7.93;5.43;;;;;;;;;;4937834;29;20034;-74
2022/05/09 18:25:04;;;;;;;6.70;5.55;;;;;;;;;;4918533;29;20029;-77
2022/05/09 18:27:30;;;;;;;11.10;5.90;;;;;;;;;;4919043;29;20088;-77
2022/05/09 18:29:56;;;;;;;7.18;5.88;;;;;;;;;;4917786;29;20032;-77
2022/05/09 18:32:23;;;;;;;8.55;6.07;;;;;;;;;;4918915;29;20449;-78
2022/05/09 19:34:50;;;;;;;9.15;5.68;;;;;;;;;;5055193;23;20055;-78
2022/05/09 19:37:16;;;;;;;5.97;5.25;;;;;;;;;;4957610;28;20049;-79
2022/05/09 19:39:41;;;;;;;6.70;5.35;;;;;;;;;;4974800;28;20023;-79
2022/05/09 19:42:09;;;;;;;9.10;5.88;;;;;;;;;;4974012;28;20031;-77
2022/05/09 19:44:41;;;;;;;7.15;6.40;;;;;;;;;;4974603;28;20034;-78
2022/05/09 19:47:13;;;;;;;10.18;5.72;;;;;;;;;;4974926;28;20073;-81
2022/05/09 19:49:47;;;;;;;6.72;5.70;;;;;;;;;;4975192;28;20531;-80
2022/05/09 19:54:58;;;;;;;9.93;6.40;;;;;;;;;;4974805;28;20445;-80
2022/05/09 19:57:25;;;;;;;6.80;5.82;;;;;;;;;;4974883;28;20027;-80
2022/05/09 19:59:50;;;;;;;7.25;6.00;;;;;;;;;;4974804;28;20034;-78
2022/05/09 20:02:22;;;;;;;7.68;6.00;;;;;;;;;;4974756;28;20031;-78
2022/05/09 20:04:48;;;;;;;8.82;5.78;;;;;;;;;;4974807;28;20473;-79
2022/05/09 20:07:14;;;;;;;8.63;6.25;;;;;;;;;;4957717;28;20117;-78
2022/05/09 20:09:40;;;;;;;9.75;5.70;;;;;;;;;;4974957;28;20166;-78
2022/05/09 20:12:10;;;;;;;7.38;6.05;;;;;;;;;;4974497;28;20097;-78
2022/05/09 20:14:37;;;;;;;7.72;6.00;;;;;;;;;;4974439;28;20041;-79
2022/05/09 20:17:03;;;;;;;7.72;6.38;;;;;;;;;;4948503;28;20367;-79
2022/05/09 20:19:28;;;;;;;8.30;6.25;;;;;;;;;;4969551;28;20031;-79
2022/05/09 20:21:54;;;;;;;8.52;5.95;;;;;;;;;;4974615;28;20031;-79
2022/05/09 20:24:23;;;;;;;10.13;5.88;;;;;;;;;;4974652;28;20462;-79
2022/05/09 20:32:16;;;;;;;6.72;6.03;;;;;;;;;;4974722;28;20051;-79
2022/05/09 20:34:41;;;;;;;8.18;6.20;;;;;;;;;;4974196;28;20030;-79
2022/05/09 20:37:24;;;;;;;7.85;6.47;;;;;;;;;;4974488;28;20026;-79
2022/05/09 20:39:50;;;;;;;6.53;5.82;;;;;;;;;;4957134;28;20030;-79
2022/05/09 20:42:20;;;;;;;8.70;6.93;;;;;;;;;;4974395;28;20026;-79
2022/05/09 20:44:45;;;;;;;8.40;5.72;;;;;;;;;;4974499;28;20537;-79
2022/05/09 20:47:11;;;;;;;9.48;6.57;;;;;;;;;;4974150;28;20030;-79
2022/05/09 20:49:37;;;;;;;8.23;6.00;;;;;;;;;;4974405;28;20035;-79
2022/05/09 20:52:03;;;;;;;10.70;6.32;;;;;;;;;;4974459;28;20033;-79
2022/05/09 20:54:28;;;;;;;7.95;6.30;;;;;;;;;;4976645;28;20031;-79
2022/05/09 20:56:54;;;;;;;9.45;5.80;;;;;;;;;;4978002;28;20031;-79
2022/05/09 20:59:19;;;;;;;7.28;6.28;;;;;;;;;;4978138;28;20034;-79
2022/05/09 21:01:45;;;;;;;7.95;6.22;;;;;;;;;;4977858;28;20026;-79
2022/05/09 21:04:11;;;;;;;9.27;6.05;;;;;;;;;;4960439;28;20126;-79
2022/05/09 21:06:40;;;;;;;7.22;6.25;;;;;;;;;;4977919;28;20037;-79
2022/05/09 21:09:06;;;;;;;6.80;5.65;;;;;;;;;;4960452;28;20125;-79
2022/05/09 21:11:32;;;;;;;10.30;6.38;;;;;;;;;;4977575;28;20118;-79
2022/05/09 21:13:58;;;;;;;8.93;6.35;;;;;;;;;;4960218;28;20513;-79
2022/05/09 21:16:23;;;;;;;7.63;6.22;;;;;;;;;;4977800;28;20363;-79
2022/05/09 21:18:49;;;;;;;7.72;6.68;;;;;;;;;;4977891;28;20054;-79
2022/05/09 21:21:14;;;;;;;11.80;6.28;;;;;;;;;;4960150;28;20059;-79
2022/05/09 21:23:49;;;;;;;7.55;6.15;;;;;;;;;;4977693;28;20437;-79
2022/05/09 21:26:15;;;;;;;8.52;6.13;;;;;;;;;;4977721;28;20023;-79
2022/05/09 21:28:41;;;;;;;9.57;6.28;;;;;;;;;;4977435;28;20037;-79
2022/05/09 21:31:07;;;;;;;7.82;5.88;;;;;;;;;;4977536;28;20458;-79
2022/05/09 21:33:33;;;;;;;9.18;6.35;;;;;;;;;;4977623;28;20058;-79
2022/05/09 21:36:04;;;;;;;10.27;6.25;;;;;;;;;;4978987;28;20362;-78
2022/05/09 21:41:28;;;;;;;10.52;6.70;;;;;;;;;;4981740;28;20062;-78
2022/05/09 21:43:55;;;;;;;7.50;5.90;;;;;;;;;;4982335;28;20092;-78
2022/05/09 21:46:20;;;;;;;8.88;6.30;;;;;;;;;;4981937;28;20030;-78
2022/05/09 21:48:46;;;;;;;8.40;6.15;;;;;;;;;;4981965;28;20027;-78
2022/05/09 21:51:16;;;;;;;10.00;6.85;;;;;;;;;;4981386;28;20373;-78
2022/05/09 21:53:42;;;;;;;8.07;5.93;;;;;;;;;;4981819;28;20039;-77
2022/05/09 21:56:09;;;;;;;10.73;6.90;;;;;;;;;;4982017;28;20134;-78
2022/05/09 21:58:35;;;;;;;9.05;7.35;;;;;;;;;;4981953;28;20504;-78
2022/05/09 22:01:01;;;;;;;9.02;7.13;;;;;;;;;;4977303;28;20027;-79
2022/05/09 22:03:27;;;;;;;9.30;7.03;;;;;;;;;;4964310;28;20371;-80
2022/05/09 22:05:55;;;;;;;8.70;7.10;;;;;;;;;;4958216;28;20035;-79
